Bury St Edmunds, United Kingdom
Current Conditions -  °F | °C
As of 9:58 AM on Sunday 21 Dec 2014 (Local Time) from EGUL Reporting Station
Overcast Overcast  
Wind Chill: 39°   Ceiling: 3500
Heat Index: 46°   Visibility: 6mi
Dew Point: 46°   Wind: 18mph
Humidity: 100%   Direction: 220°SW
Pressure: 30.25"   Gusts: NA
Location:  52.25°N, 0.71°E
Report Text: EGUL 210958Z AUTO 22016KT 9999 OVC035 08/08 A3025 RMK AO2 SLP247 T00770077
Loading
Personal Weather Stations






























Interactive Weather Map New forecast layout! Learn more

10-Day Weather Forecast

Advertisements
Track Severe Weather on mobile